createdAt,value
2019-02-05T00:00:59.022Z,13.73
2019-02-05T00:03:29.947Z,14.80
2019-02-05T00:06:01.042Z,16.73
2019-02-05T00:08:32.495Z,17.20
2019-02-05T00:11:03.760Z,20.13
2019-02-05T00:13:34.779Z,21.43
2019-02-05T00:16:06.007Z,21.97
2019-02-05T00:18:37.080Z,21.00
2019-02-05T00:21:08.215Z,16.67
2019-02-05T00:23:40.379Z,15.77
2019-02-05T00:26:11.296Z,29.37
2019-02-05T00:28:43.116Z,28.43
2019-02-05T00:31:13.949Z,15.63
2019-02-05T00:33:45.053Z,13.80
2019-02-05T00:36:16.221Z,15.07
2019-02-05T00:38:46.993Z,21.77
2019-02-05T00:41:17.825Z,16.40
2019-02-05T00:43:48.829Z,14.83
2019-02-05T00:46:19.660Z,13.83
2019-02-05T00:48:50.795Z,12.43
2019-02-05T00:51:21.775Z,10.90
2019-02-05T00:53:52.557Z,9.30
2019-02-05T00:56:23.569Z,9.13
2019-02-05T00:58:54.570Z,9.40
2019-02-05T01:01:25.647Z,9.20
2019-02-05T01:03:56.785Z,9.77
2019-02-05T01:06:27.894Z,9.37
2019-02-05T01:08:59.551Z,8.93
2019-02-05T01:11:30.694Z,9.60
2019-02-05T01:14:01.477Z,8.20
2019-02-05T01:16:32.599Z,8.97
2019-02-05T01:19:03.739Z,8.90
2019-02-05T01:21:34.493Z,8.73
2019-02-05T01:24:05.727Z,8.67
2019-02-05T01:26:36.492Z,9.07
2019-02-05T01:29:07.576Z,8.40
2019-02-05T01:31:38.547Z,9.00
2019-02-05T01:34:09.647Z,8.50
2019-02-05T01:36:40.677Z,8.50
2019-02-05T01:39:11.644Z,8.53
2019-02-05T01:41:42.549Z,8.53
2019-02-05T01:44:13.835Z,7.77
2019-02-05T01:46:44.590Z,8.33
2019-02-05T01:49:15.665Z,8.37
2019-02-05T01:51:46.647Z,8.57
2019-02-05T01:54:17.609Z,8.60
2019-02-05T01:56:48.836Z,9.00
2019-02-05T01:59:19.718Z,9.20
2019-02-05T02:01:50.562Z,8.63
2019-02-05T02:04:21.747Z,9.20
2019-02-05T02:06:53.960Z,8.90
2019-02-05T02:09:24.739Z,9.60
2019-02-05T02:11:55.899Z,9.37
2019-02-05T02:14:26.790Z,9.30
2019-02-05T02:16:58.036Z,10.40
2019-02-05T02:19:29.449Z,10.37
2019-02-05T02:22:00.298Z,10.00
2019-02-05T02:24:31.143Z,8.57
2019-02-05T02:27:02.376Z,9.63
2019-02-05T02:29:34.537Z,10.30
2019-02-05T02:32:05.552Z,10.03
2019-02-05T02:34:36.663Z,9.40
2019-02-05T02:37:07.882Z,9.10
2019-02-05T02:39:39.932Z,9.90
2019-02-05T02:42:11.114Z,9.50
2019-02-05T02:44:41.961Z,10.43
2019-02-05T02:47:12.716Z,9.57
2019-02-05T02:49:43.493Z,11.03
2019-02-05T02:52:14.477Z,10.30
2019-02-05T02:54:45.248Z,11.57
2019-02-05T02:57:16.344Z,9.70
2019-02-05T02:59:47.199Z,10.77
2019-02-05T03:02:18.256Z,12.03
2019-02-05T03:04:49.423Z,9.63
2019-02-05T03:07:20.512Z,10.70
2019-02-05T03:09:51.293Z,11.07
2019-02-05T03:12:22.361Z,11.43
2019-02-05T03:14:53.258Z,12.37
2019-02-05T03:17:24.201Z,12.50
2019-02-05T03:19:55.462Z,11.30
2019-02-05T03:22:26.798Z,12.87
2019-02-05T03:24:57.610Z,11.30
2019-02-05T03:27:28.686Z,13.80
2019-02-05T03:29:59.960Z,13.43
2019-02-05T03:32:31.052Z,13.20
2019-02-05T03:35:02.115Z,13.77
2019-02-05T03:37:32.898Z,13.13
2019-02-05T03:40:04.439Z,13.93
2019-02-05T03:42:36.700Z,12.90
2019-02-05T03:45:08.055Z,14.10
2019-02-05T03:47:39.375Z,13.93
2019-02-05T03:50:10.303Z,11.93
2019-02-05T03:52:46.776Z,12.50
2019-02-05T03:55:49.804Z,13.83
2019-02-05T03:58:57.434Z,14.20
2019-02-05T04:01:54.893Z,14.83
2019-02-05T04:04:53.545Z,13.20
2019-02-05T04:08:01.216Z,13.33
2019-02-05T04:11:26.788Z,13.33
2019-02-05T04:14:36.193Z,14.07
2019-02-05T04:18:02.586Z,14.20
2019-02-05T04:20:56.675Z,14.33
2019-02-05T04:23:59.301Z,14.60
2019-02-05T04:26:50.134Z,13.90
2019-02-05T04:29:54.464Z,17.23
2019-02-05T04:32:41.714Z,16.80
2019-02-05T04:35:50.369Z,15.93
2019-02-05T04:38:49.886Z,15.17
2019-02-05T04:41:52.186Z,15.73
2019-02-05T04:45:09.094Z,15.77
2019-02-05T04:48:36.210Z,15.83
2019-02-05T04:51:49.138Z,14.63
2019-02-05T04:55:06.441Z,16.63
2019-02-05T04:58:01.617Z,17.27
2019-02-05T05:01:02.924Z,18.23
2019-02-05T05:03:59.810Z,16.77
2019-02-05T05:07:08.341Z,17.20
2019-02-05T05:09:57.117Z,18.47
2019-02-05T05:12:29.423Z,18.33
2019-02-05T05:15:00.792Z,17.73
2019-02-05T05:17:32.917Z,20.43
2019-02-05T05:20:04.018Z,17.37
2019-02-05T05:22:35.532Z,18.20
2019-02-05T05:25:08.290Z,18.43
2019-02-05T05:27:39.451Z,18.40
2019-02-05T05:30:14.395Z,20.13
2019-02-05T05:32:45.156Z,19.27
2019-02-05T05:35:16.268Z,18.97
2019-02-05T05:37:47.370Z,19.53
2019-02-05T05:40:18.517Z,19.73
2019-02-05T05:42:49.475Z,20.50
2019-02-05T05:45:20.354Z,20.53
2019-02-05T05:47:51.186Z,20.00
2019-02-05T05:50:21.978Z,21.63
2019-02-05T05:52:53.261Z,21.10
2019-02-05T05:55:24.124Z,30.53
2019-02-05T05:57:55.132Z,26.53
2019-02-05T06:00:26.326Z,20.23
2019-02-05T06:02:57.660Z,20.30
2019-02-05T06:05:28.562Z,19.23
2019-02-05T06:07:59.917Z,20.07
2019-02-05T06:10:30.701Z,18.77
2019-02-05T06:13:01.993Z,19.03
2019-02-05T06:15:35.750Z,18.37
2019-02-05T06:18:05.524Z,19.03
2019-02-05T06:20:36.993Z,18.53
2019-02-05T06:23:08.015Z,18.60
2019-02-05T06:25:38.804Z,19.40
2019-02-05T06:28:09.833Z,19.10
2019-02-05T06:30:40.995Z,19.07
2019-02-05T06:33:12.138Z,19.00
2019-02-05T06:35:43.255Z,18.03
2019-02-05T06:38:14.422Z,19.03
2019-02-05T06:40:45.774Z,18.53
2019-02-05T06:43:16.922Z,18.40
2019-02-05T06:45:48.436Z,18.70
2019-02-05T06:48:19.617Z,19.17
2019-02-05T06:50:50.703Z,19.73
2019-02-05T06:53:21.715Z,19.57
2019-02-05T06:55:52.865Z,18.50
2019-02-05T06:58:23.942Z,18.67
2019-02-05T07:00:54.978Z,19.03
2019-02-05T07:03:26.181Z,19.30
2019-02-05T07:05:57.086Z,18.20
2019-02-05T07:08:28.276Z,19.67
2019-02-05T07:10:59.719Z,19.47
2019-02-05T07:13:30.725Z,19.47
2019-02-05T07:16:02.321Z,19.00
2019-02-05T07:18:33.089Z,19.10
2019-02-05T07:21:04.911Z,19.60
2019-02-05T07:23:35.974Z,20.13
2019-02-05T07:26:06.956Z,18.57
2019-02-05T07:28:37.957Z,19.67
2019-02-05T07:31:08.978Z,19.00
2019-02-05T07:33:40.128Z,18.83
2019-02-05T07:36:10.989Z,19.37
2019-02-05T07:38:41.881Z,18.43
2019-02-05T07:41:12.846Z,18.13
2019-02-05T07:43:43.833Z,18.03
2019-02-05T07:46:15.273Z,17.73
2019-02-05T07:48:46.043Z,18.07
2019-02-05T07:51:17.194Z,18.57
2019-02-05T07:53:48.029Z,18.17
2019-02-05T07:56:19.107Z,18.87
2019-02-05T07:58:50.156Z,19.17
2019-02-05T08:01:21.176Z,18.77
2019-02-05T08:03:52.277Z,19.03
2019-02-05T08:06:23.356Z,19.90
2019-02-05T08:08:54.494Z,19.33
2019-02-05T08:11:25.577Z,20.57
2019-02-05T08:13:56.430Z,20.33
2019-02-05T08:16:27.445Z,21.30
2019-02-05T08:18:58.488Z,22.73
2019-02-05T08:21:29.585Z,22.03
2019-02-05T08:24:00.926Z,22.43
2019-02-05T08:26:31.711Z,22.83
2019-02-05T08:29:02.775Z,23.03
2019-02-05T08:31:34.164Z,22.93
2019-02-05T08:34:05.001Z,22.17
2019-02-05T08:36:35.782Z,22.17
2019-02-05T08:39:08.989Z,22.27
2019-02-05T08:41:41.268Z,21.53
2019-02-05T08:44:12.218Z,20.67
2019-02-05T08:46:43.283Z,20.77
2019-02-05T08:49:14.420Z,20.93
2019-02-05T08:51:45.485Z,21.47
2019-02-05T08:54:16.564Z,20.97
2019-02-05T08:56:47.401Z,21.83
2019-02-05T08:59:18.930Z,22.17
2019-02-05T09:01:50.259Z,22.77
2019-02-05T09:04:21.360Z,23.13
2019-02-05T09:06:52.288Z,22.57
2019-02-05T09:09:23.046Z,22.67
2019-02-05T09:11:53.966Z,22.40
2019-02-05T09:14:25.046Z,21.77
2019-02-05T09:16:55.937Z,21.20
2019-02-05T09:19:26.996Z,22.63
2019-02-05T09:21:57.852Z,21.50
2019-02-05T09:24:28.793Z,21.93
2019-02-05T09:26:59.998Z,21.43
2019-02-05T09:29:33.421Z,19.60
2019-02-05T09:32:04.290Z,21.33
2019-02-05T09:34:35.115Z,20.50
2019-02-05T09:37:06.400Z,22.20
2019-02-05T09:39:37.182Z,20.80
2019-02-05T09:42:08.404Z,20.13
2019-02-05T09:44:39.259Z,21.10
2019-02-05T09:47:10.569Z,22.13
2019-02-05T09:49:41.509Z,20.20
2019-02-05T09:52:12.371Z,20.73
2019-02-05T09:54:43.335Z,20.63
2019-02-05T09:57:14.567Z,19.63
2019-02-05T09:59:45.851Z,18.93
2019-02-05T10:02:16.983Z,20.23
2019-02-05T10:04:47.827Z,20.17
2019-02-05T10:07:18.608Z,20.77
2019-02-05T10:09:49.467Z,20.90
2019-02-05T10:12:20.213Z,20.40
2019-02-05T10:14:51.278Z,20.73
2019-02-05T10:17:23.259Z,19.00
2019-02-05T10:19:54.526Z,20.30
2019-02-05T10:22:25.608Z,19.70
2019-02-05T10:24:57.161Z,20.23
2019-02-05T10:27:28.369Z,20.37
2019-02-05T10:29:59.635Z,19.30
2019-02-05T10:32:30.440Z,19.13
2019-02-05T10:35:01.198Z,21.27
2019-02-05T10:37:32.062Z,19.20
2019-02-05T10:40:03.162Z,19.73
2019-02-05T10:42:34.171Z,20.87
2019-02-05T10:45:06.337Z,25.33
2019-02-05T10:47:37.429Z,24.63
2019-02-05T10:50:09.857Z,21.47
2019-02-05T10:52:42.063Z,19.30
2019-02-05T10:55:13.993Z,20.80
2019-02-05T10:57:45.115Z,19.47
2019-02-05T11:00:25.341Z,19.07
2019-02-05T11:02:57.692Z,19.40
2019-02-05T11:05:30.077Z,19.13
2019-02-05T11:08:01.129Z,18.27
2019-02-05T11:10:32.889Z,19.37
2019-02-05T11:13:04.465Z,20.07
2019-02-05T11:15:35.682Z,19.13
2019-02-05T11:18:08.954Z,17.83
2019-02-05T11:20:41.015Z,17.50
2019-02-05T11:23:12.117Z,17.87
2019-02-05T11:25:43.031Z,18.20
2019-02-05T11:28:13.811Z,18.37
2019-02-05T11:30:45.457Z,17.87
2019-02-05T11:33:16.604Z,19.00
2019-02-05T11:35:47.447Z,19.00
2019-02-05T11:38:18.563Z,18.53
2019-02-05T11:40:49.405Z,17.63
2019-02-05T11:43:20.497Z,18.43
2019-02-05T11:45:51.333Z,16.50
2019-02-05T11:48:22.272Z,16.93
2019-02-05T11:50:53.115Z,17.47
2019-02-05T11:53:23.966Z,17.83
2019-02-05T11:55:55.225Z,17.47
2019-02-05T11:58:26.188Z,17.87
2019-02-05T12:01:05.694Z,16.93
2019-02-05T12:03:37.173Z,17.53
2019-02-05T12:06:08.546Z,17.53
2019-02-05T12:08:39.445Z,16.67
2019-02-05T12:11:10.322Z,16.10
2019-02-05T12:13:41.246Z,16.27
2019-02-05T12:16:12.096Z,16.23
2019-02-05T12:18:42.990Z,16.40
2019-02-05T12:21:14.056Z,16.90
2019-02-05T12:23:45.067Z,16.13
2019-02-05T12:26:15.992Z,16.20
2019-02-05T12:28:46.939Z,16.50
2019-02-05T12:31:18.183Z,17.23
2019-02-05T12:33:50.254Z,15.30
2019-02-05T12:36:21.061Z,16.03
2019-02-05T12:38:51.920Z,15.43
2019-02-05T12:41:23.002Z,14.93
2019-02-05T12:43:54.053Z,14.53
2019-02-05T12:46:24.906Z,14.27
2019-02-05T12:48:55.690Z,15.37
2019-02-05T12:51:26.825Z,14.83
2019-02-05T12:53:57.921Z,14.00
2019-02-05T12:56:29.297Z,14.10
2019-02-05T12:59:00.084Z,14.47
2019-02-05T13:01:31.149Z,13.60
2019-02-05T13:04:02.081Z,13.13
2019-02-05T13:06:32.993Z,11.80
2019-02-05T13:09:05.814Z,10.73
2019-02-05T13:11:38.478Z,12.50
2019-02-05T13:14:09.534Z,14.17
2019-02-05T13:16:41.005Z,13.20
2019-02-05T13:19:11.709Z,12.07
2019-02-05T13:21:42.700Z,13.70
2019-02-05T13:24:16.574Z,13.53
2019-02-05T13:26:46.145Z,13.47
2019-02-05T13:29:16.929Z,14.23
2019-02-05T13:31:47.996Z,14.53
2019-02-05T13:34:19.393Z,14.60
2019-02-05T13:36:50.546Z,14.03
2019-02-05T13:39:21.491Z,11.90
2019-02-05T13:41:52.387Z,12.70
2019-02-05T13:44:23.241Z,13.23
2019-02-05T13:46:54.076Z,13.40
2019-02-05T13:49:25.346Z,13.33
2019-02-05T13:51:56.120Z,13.07
2019-02-05T13:54:27.277Z,13.73
2019-02-05T13:56:58.246Z,13.63
2019-02-05T13:59:29.065Z,13.97
2019-02-05T14:02:00.331Z,14.37
2019-02-05T14:04:31.518Z,14.10
2019-02-05T14:07:02.465Z,13.93
2019-02-05T14:09:33.245Z,13.80
2019-02-05T14:12:04.089Z,14.33
2019-02-05T14:14:35.117Z,13.63
2019-02-05T14:17:06.333Z,14.97
2019-02-05T14:19:37.262Z,14.67
2019-02-05T14:22:08.183Z,14.33
2019-02-05T14:24:39.299Z,15.57
2019-02-05T14:27:10.413Z,14.60
2019-02-05T14:29:41.466Z,14.00
2019-02-05T14:32:12.347Z,15.33
2019-02-05T14:34:43.217Z,13.63
2019-02-05T14:37:15.037Z,13.73
2019-02-05T14:39:48.877Z,15.70
2019-02-05T14:42:18.554Z,14.53
2019-02-05T14:44:49.661Z,14.30
2019-02-05T14:47:20.520Z,14.10
2019-02-05T14:49:51.531Z,15.00
2019-02-05T14:52:22.396Z,15.27
2019-02-05T14:54:55.085Z,14.73
2019-02-05T14:57:25.860Z,14.40
2019-02-05T14:59:57.369Z,14.63
2019-02-05T15:02:28.452Z,14.87
2019-02-05T15:04:59.552Z,14.20
2019-02-05T15:07:30.696Z,14.90
2019-02-05T15:10:01.483Z,13.63
2019-02-05T15:12:32.837Z,14.10
2019-02-05T15:15:04.538Z,14.57
2019-02-05T15:17:37.355Z,14.30
2019-02-05T15:20:13.011Z,13.93
2019-02-05T15:22:44.097Z,14.00
2019-02-05T15:25:14.953Z,15.00
2019-02-05T15:27:45.940Z,14.13
2019-02-05T15:30:23.262Z,14.97
2019-02-05T15:33:18.966Z,15.07
2019-02-05T15:35:53.161Z,13.57
2019-02-05T15:38:24.238Z,13.60
2019-02-05T15:40:55.110Z,12.87
2019-02-05T15:43:25.873Z,12.83
2019-02-05T15:45:56.903Z,12.80
2019-02-05T15:48:27.776Z,12.97
2019-02-05T15:50:58.857Z,12.93
2019-02-05T15:53:32.648Z,13.23
2019-02-05T15:56:04.004Z,38.27
2019-02-05T15:58:34.869Z,13.37
2019-02-05T16:01:06.492Z,13.80
2019-02-05T16:03:37.375Z,13.53
2019-02-05T16:06:08.323Z,13.03
2019-02-05T16:08:39.441Z,13.63
2019-02-05T16:11:10.582Z,13.57
2019-02-05T16:13:41.542Z,13.30
2019-02-05T16:16:12.611Z,12.60
2019-02-05T16:18:45.740Z,12.33
2019-02-05T16:21:16.793Z,12.43
2019-02-05T16:23:48.535Z,13.33
2019-02-05T16:26:19.551Z,12.63
2019-02-05T16:28:50.325Z,13.13
2019-02-05T16:31:21.240Z,13.70
2019-02-05T16:33:52.720Z,13.17
2019-02-05T16:36:23.588Z,12.97
2019-02-05T16:38:54.436Z,13.03
2019-02-05T16:41:25.754Z,12.47
2019-02-05T16:43:56.512Z,13.37
2019-02-05T16:46:27.448Z,12.77
2019-02-05T16:48:58.442Z,12.73
2019-02-05T16:51:29.706Z,12.70
2019-02-05T16:54:00.557Z,13.73
2019-02-05T16:56:31.332Z,13.13
2019-02-05T16:59:02.730Z,12.30
2019-02-05T17:01:33.772Z,12.77
2019-02-05T17:04:05.126Z,14.70
2019-02-05T17:06:36.210Z,14.33
2019-02-05T17:09:14.326Z,14.47
2019-02-05T17:11:45.500Z,13.93
2019-02-05T17:14:16.366Z,14.30
2019-02-05T17:16:47.377Z,16.57
2019-02-05T17:19:18.189Z,13.37
2019-02-05T17:21:48.988Z,12.70
2019-02-05T17:24:20.061Z,12.00
2019-02-05T17:26:51.162Z,11.27
2019-02-05T17:29:21.940Z,11.43
2019-02-05T17:31:53.037Z,11.33
2019-02-05T17:34:23.878Z,11.20
2019-02-05T17:36:55.690Z,11.67
2019-02-05T17:39:26.556Z,12.70
2019-02-05T17:41:57.720Z,12.23
2019-02-05T17:44:29.172Z,11.10
2019-02-05T17:47:00.309Z,10.20
2019-02-05T17:49:31.323Z,10.70
2019-02-05T17:52:02.192Z,10.90
2019-02-05T17:54:33.315Z,12.20
2019-02-05T17:57:04.174Z,11.83
2019-02-05T17:59:35.161Z,12.40
2019-02-05T18:02:06.022Z,12.87
2019-02-05T18:04:37.162Z,12.83
2019-02-05T18:07:08.342Z,12.80
2019-02-05T18:09:39.510Z,12.43
2019-02-05T18:12:10.642Z,13.77
2019-02-05T18:14:41.511Z,14.90
2019-02-05T18:17:12.576Z,14.63
2019-02-05T18:19:43.469Z,14.87
2019-02-05T18:22:14.457Z,14.70
2019-02-05T18:24:45.533Z,14.23
2019-02-05T18:27:16.636Z,14.93
2019-02-05T18:29:48.033Z,15.10
2019-02-05T18:32:19.257Z,15.93
2019-02-05T18:34:50.032Z,15.03
2019-02-05T18:37:20.920Z,15.23
2019-02-05T18:39:52.403Z,14.83
2019-02-05T18:42:23.758Z,14.47
2019-02-05T18:44:54.641Z,13.73
2019-02-05T18:47:25.747Z,14.37
2019-02-05T18:49:56.736Z,14.40
2019-02-05T18:52:28.074Z,14.27
2019-02-05T18:54:59.142Z,14.90
2019-02-05T18:57:30.453Z,14.17
2019-02-05T19:00:01.375Z,13.80
2019-02-05T19:02:34.162Z,13.47
2019-02-05T19:05:05.724Z,14.17
2019-02-05T19:07:36.581Z,13.93
2019-02-05T19:10:08.239Z,14.47
2019-02-05T19:12:39.627Z,15.17
2019-02-05T19:15:15.923Z,15.27
2019-02-05T19:17:46.806Z,14.17
2019-02-05T19:20:17.751Z,16.77
2019-02-05T19:22:48.778Z,16.90
2019-02-05T19:25:27.045Z,16.17
2019-02-05T19:27:58.070Z,14.93
2019-02-05T19:30:30.333Z,14.60
2019-02-05T19:33:01.432Z,14.27
2019-02-05T19:35:33.746Z,14.30
2019-02-05T19:38:05.121Z,14.30
2019-02-05T19:40:36.678Z,14.87
2019-02-05T19:43:07.849Z,14.30
2019-02-05T19:45:51.375Z,14.03
2019-02-05T19:48:30.814Z,13.27
2019-02-05T19:51:02.281Z,14.87
2019-02-05T19:53:33.182Z,14.93
2019-02-05T19:56:04.518Z,13.77
2019-02-05T19:58:35.792Z,14.60
2019-02-05T20:01:06.856Z,13.60
2019-02-05T20:03:39.013Z,14.10
2019-02-05T20:06:10.213Z,13.90
2019-02-05T20:08:41.083Z,14.40
2019-02-05T20:11:12.191Z,14.07
2019-02-05T20:13:43.266Z,13.83
2019-02-05T20:16:14.399Z,14.27
2019-02-05T20:18:45.332Z,14.23
2019-02-05T20:21:16.414Z,13.93
2019-02-05T20:23:47.672Z,14.47
2019-02-05T20:26:18.928Z,14.33
2019-02-05T20:28:50.210Z,14.97
2019-02-05T20:31:21.300Z,13.67
2019-02-05T20:33:52.088Z,15.13
2019-02-05T20:36:23.169Z,14.50
2019-02-05T20:38:54.450Z,15.47
2019-02-05T20:41:25.330Z,14.87
2019-02-05T20:43:56.424Z,15.90
2019-02-05T20:46:27.408Z,16.87
2019-02-05T20:48:58.213Z,16.97
2019-02-05T20:51:28.976Z,15.40
2019-02-05T20:53:59.853Z,14.63
2019-02-05T20:56:31.437Z,14.57
2019-02-05T20:59:02.520Z,14.73
2019-02-05T21:01:33.375Z,15.50
2019-02-05T21:04:04.513Z,14.10
2019-02-05T21:06:35.370Z,15.20
2019-02-05T21:09:15.905Z,15.83
2019-02-05T21:11:47.050Z,15.00
2019-02-05T21:14:18.140Z,15.50
2019-02-05T21:16:49.213Z,16.17
2019-02-05T21:19:20.050Z,15.60
2019-02-05T21:21:51.341Z,13.80
2019-02-05T21:24:22.397Z,13.60
2019-02-05T21:26:53.461Z,13.37
2019-02-05T21:29:24.869Z,13.77
2019-02-05T21:31:55.650Z,14.20
2019-02-05T21:34:26.439Z,14.53
2019-02-05T21:36:57.897Z,13.67
2019-02-05T21:39:28.872Z,14.33
2019-02-05T21:41:59.870Z,14.00
2019-02-05T21:44:31.211Z,14.13
2019-02-05T21:47:02.002Z,14.17
2019-02-05T21:49:34.365Z,13.27
2019-02-05T21:52:05.485Z,12.47
2019-02-05T21:54:36.577Z,12.53
2019-02-05T21:57:07.597Z,13.13
2019-02-05T21:59:38.893Z,12.93
2019-02-05T22:02:09.730Z,12.70
2019-02-05T22:04:40.546Z,13.47
2019-02-05T22:07:11.970Z,15.93
2019-02-05T22:09:43.074Z,15.93
2019-02-05T22:12:14.465Z,14.60
2019-02-05T22:14:45.723Z,14.90
2019-02-05T22:17:18.351Z,15.57
2019-02-05T22:19:49.249Z,14.80
2019-02-05T22:22:20.220Z,14.77
2019-02-05T22:24:51.025Z,15.20
2019-02-05T22:27:22.485Z,13.57
2019-02-05T22:29:53.994Z,13.07
2019-02-05T22:32:25.226Z,12.57
2019-02-05T22:34:56.012Z,14.40
2019-02-05T22:37:26.998Z,13.73
2019-02-05T22:39:58.004Z,14.63
2019-02-05T22:42:28.770Z,14.73
2019-02-05T22:45:00.133Z,14.27
2019-02-05T22:47:30.939Z,15.33
2019-02-05T22:50:02.003Z,17.13
2019-02-05T22:52:33.983Z,16.90
2019-02-05T22:55:05.673Z,16.80
2019-02-05T22:57:36.793Z,15.03
2019-02-05T23:00:16.825Z,15.30
2019-02-05T23:02:48.633Z,13.57
2019-02-05T23:05:42.783Z,13.93
2019-02-05T23:08:13.858Z,14.40
2019-02-05T23:11:12.364Z,14.77
2019-02-05T23:13:43.434Z,13.57
2019-02-05T23:16:15.546Z,14.13
2019-02-05T23:18:46.309Z,13.57
2019-02-05T23:21:17.404Z,14.13
2019-02-05T23:23:48.402Z,13.80
2019-02-05T23:26:23.856Z,13.37
2019-02-05T23:28:53.370Z,14.90
2019-02-05T23:31:24.470Z,14.73
2019-02-05T23:33:55.220Z,14.27
2019-02-05T23:36:26.386Z,14.20
2019-02-05T23:38:57.630Z,14.87
2019-02-05T23:41:28.774Z,13.33
2019-02-05T23:43:59.545Z,13.73
2019-02-05T23:46:30.409Z,15.83
2019-02-05T23:49:01.269Z,15.77
2019-02-05T23:51:32.052Z,18.20
2019-02-05T23:54:02.825Z,15.43
2019-02-05T23:56:33.957Z,14.77
2019-02-05T23:59:04.953Z,14.43
